Temp: 13.4°C   Baro: 1022.2mb
  Wind: 0.0mph   Dir: ESE (104°)
  Rain: 0.0mm (0.0mm/hr)
  Sun: 0W/m2  Humidity: 78%

Historic data

Bath Spa Weather Station Historical Data
Daily Summary for May 16, 2024 Units:  English    Metric   Both
Daily Weekly Monthly Yearly Custom
  High: Low: Average:
Temperature: 67.5 °F 48 °F 56.7 °F
Dew Point: 54.2 °F 44.1 °F 49.5 °F
Humidity: 89% 60.4% 78%
Wind Speed: 5.4mph 0mph 1.6mph
Wind Gust: 11mph - -
Wind- - SSE
Pressure: 29.72 in 29.67 in -
Precipitation: 0.00 in    
Historical Graphs
 
 
Tabular Data for May 16, 2024
Time Temperature Dew Point Pressure Wind Wind Speed Wind Gust Humidity Rainfall Rate (Hourly) solar
00:09 52.5 °F 46.6 °F 29.71 in Calm     80% 0.00 in 0 W/m2
00:14 52.3 °F 46.4 °F 29.71 in Calm     80% 0.00 in 0 W/m2
00:19 52.3 °F 46.3 °F 29.71 in Calm     80% 0.00 in 0 W/m2
00:24 52.2 °F 46.2 °F 29.71 in Calm     80% 0.00 in 0 W/m2
00:29 52 °F 46.4 °F 29.71 in Calm     81% 0.00 in 0 W/m2
00:34 52 °F 46.4 °F 29.71 in Calm     81% 0.00 in 0 W/m2
00:39 51.8 °F 46.2 °F 29.71 in Calm     81% 0.00 in 0 W/m2
00:44 51.6 °F 46.2 °F 29.71 in Calm     81.8% 0.00 in 0 W/m2
00:49 51.4 °F 46.2 °F 29.71 in Calm     82% 0.00 in 0 W/m2
00:54 51.3 °F 46.1 °F 29.71 in Calm     82% 0.00 in 0 W/m2
00:59 51.2 °F 46 °F 29.71 in Calm     82% 0.00 in 0 W/m2
01:04 51.1 °F 46 °F 29.71 in Calm     82.6% 0.00 in 0 W/m2
01:09 51 °F 45.9 °F 29.71 in Calm     83% 0.00 in 0 W/m2
01:14 50.8 °F 45.8 °F 29.71 in Calm     83% 0.00 in 0 W/m2
01:19 50.7 °F 45.7 °F 29.71 in Calm     83% 0.00 in 0 W/m2
01:24 50.7 °F 45.7 °F 29.71 in Calm     83% 0.00 in 0 W/m2
01:29 50.5 °F 45.7 °F 29.70 in Calm     83.6% 0.00 in 0 W/m2
01:34 50.5 °F 45.8 °F 29.70 in Calm     84% 0.00 in 0 W/m2
01:39 50.4 °F 45.7 °F 29.70 in Calm     84% 0.00 in 0 W/m2
01:44 50.3 °F 45.6 °F 29.70 in Calm     84% 0.00 in 0 W/m2
01:49 50.2 °F 45.5 °F 29.71 in Calm     84% 0.00 in 0 W/m2
01:54 49.9 °F 45.2 °F 29.71 in Calm     84% 0.00 in 0 W/m2
01:59 49.8 °F 45.3 °F 29.70 in Calm     84.4% 0.00 in 0 W/m2
02:04 49.8 °F 45.3 °F 29.70 in Calm     84.6% 0.00 in 0 W/m2
02:09 49.6 °F 45.2 °F 29.70 in Calm     84.8% 0.00 in 0 W/m2
02:14 49.5 °F 45.1 °F 29.70 in Calm     85% 0.00 in 0 W/m2
02:19 49.3 °F 45 °F 29.70 in Calm     85% 0.00 in 0 W/m2
02:24 49.3 °F 45 °F 29.70 in Calm     85% 0.00 in 0 W/m2
02:29 49 °F 44.7 °F 29.70 in Calm     85% 0.00 in 0 W/m2
02:34 48.9 °F 44.6 °F 29.70 in Calm     85% 0.00 in 0 W/m2
02:39 48.8 °F 44.5 °F 29.70 in Calm     85% 0.00 in 0 W/m2
02:44 48.7 °F 44.8 °F 29.70 in Calm     86% 0.00 in 0 W/m2
02:49 48.6 °F 44.5 °F 29.70 in Calm     85.6% 0.00 in 0 W/m2
02:54 48.4 °F 44.4 °F 29.70 in Calm     86% 0.00 in 0 W/m2
02:59 48.3 °F 44.3 °F 29.70 in Calm     86% 0.00 in 0 W/m2
03:04 48 °F 44.1 °F 29.70 in Calm     86% 0.00 in 0 W/m2
03:08 48 °F 44.1 °F 29.70 in Calm     86% 0.00 in 0 W/m2
03:14 48 °F 44.1 °F 29.70 in Calm     86% 0.00 in 0 W/m2
03:19 48 °F 44.1 °F 29.70 in Calm     86% 0.00 in 0 W/m2
03:24 48.1 °F 44.2 °F 29.70 in Calm     86% 0.00 in 0 W/m2
03:29 48.2 °F 44.6 °F 29.70 in Calm     87% 0.00 in 0 W/m2
03:34 48.4 °F 44.8 °F 29.70 in Calm     87% 0.00 in 0 W/m2
03:39 48.4 °F 44.8 °F 29.69 in Calm     87% 0.00 in 0 W/m2
03:44 48.4 °F 44.8 °F 29.69 in Calm   1 mph 87% 0.00 in 0 W/m2
03:49 48.6 °F 44.9 °F 29.69 in ESE 0.2 mph 1 mph 87% 0.00 in 0 W/m2
03:54 48.7 °F 45 °F 29.69 in Calm     87% 0.00 in 0 W/m2
03:59 48.9 °F 45.1 °F 29.69 in ESE 0.2 mph 2 mph 87% 0.00 in 0 W/m2
04:04 49 °F 45.2 °F 29.69 in ESE 0.2 mph 2 mph 87% 0.00 in 0 W/m2
04:09 49.1 °F 45.3 °F 29.69 in Calm   2 mph 87% 0.00 in 0 W/m2
04:14 49.1 °F 45.3 °F 29.69 in Calm     87% 0.00 in 0 W/m2
04:19 49 °F 45.2 °F 29.69 in Calm     87% 0.00 in 0 W/m2
04:24 49 °F 45.2 °F 29.69 in ESE 0.4 mph 1 mph 87% 0.00 in 0 W/m2
04:29 49.1 °F 45.3 °F 29.69 in Calm   1 mph 87% 0.00 in 0 W/m2
04:34 49.1 °F 45.3 °F 29.69 in Calm     87% 0.00 in 0 W/m2
04:39 48.9 °F 45.1 °F 29.69 in Calm     87% 0.00 in 0 W/m2
04:44 48.9 °F 45.3 °F 29.69 in Calm     87.6% 0.00 in 0 W/m2
04:49 48.9 °F 45.3 °F 29.69 in Calm     87.4% 0.00 in 0 W/m2
04:54 48.9 °F 45.5 °F 29.69 in Calm     88% 0.00 in 0 W/m2
04:59 48.9 °F 45.5 °F 29.68 in Calm     88% 0.00 in 0 W/m2
05:04 48.8 °F 45.4 °F 29.68 in Calm   1 mph 88% 0.00 in 0 W/m2
05:09 48.7 °F 45.3 °F 29.68 in Calm   1 mph 88% 0.00 in 0 W/m2
05:14 48.8 °F 45.4 °F 29.68 in Calm   1 mph 88% 0.00 in 0 W/m2
05:19 48.9 °F 45.5 °F 29.68 in Calm     88% 0.00 in 0 W/m2
05:24 48.7 °F 45.3 °F 29.68 in Calm   1 mph 88% 0.00 in 7 W/m2
05:29 48.7 °F 45.3 °F 29.68 in Calm   1 mph 88% 0.00 in 9 W/m2
05:34 48.7 °F 45.3 °F 29.69 in Calm     88% 0.00 in 11 W/m2
05:39 48.7 °F 45.3 °F 29.69 in Calm     88% 0.00 in 12 W/m2
05:44 48.7 °F 45.3 °F 29.69 in Calm     88% 0.00 in 18 W/m2
05:49 48.6 °F 45.1 °F 29.69 in Calm     88% 0.00 in 23 W/m2
05:54 48.5 °F 45.1 °F 29.69 in ESE 0.4 mph 2 mph 88% 0.00 in 26 W/m2
05:59 48.4 °F 45 °F 29.69 in ESE 0.6 mph 2 mph 88% 0.00 in 30 W/m2
06:04 48.4 °F 45 °F 29.69 in ESE 0.6 mph 3 mph 88% 0.00 in 30 W/m2
06:09 48.4 °F 45 °F 29.69 in Calm   1 mph 88% 0.00 in 32 W/m2
06:14 48.4 °F 45 °F 29.69 in ESE 1.8 mph 3 mph 88% 0.00 in 33 W/m2
06:19 48.3 °F 44.9 °F 29.70 in ESE 0.5 mph 3 mph 88% 0.00 in 37 W/m2
06:24 48.4 °F 45 °F 29.70 in Calm   1 mph 88% 0.00 in 44 W/m2
06:29 48.4 °F 45 °F 29.70 in ESE 0.9 mph 3 mph 88% 0.00 in 53 W/m2
06:34 48.6 °F 45.4 °F 29.70 in Calm   1 mph 88.8% 0.00 in 62 W/m2
06:39 48.7 °F 45.2 °F 29.70 in Calm   1 mph 88% 0.00 in 70 W/m2
06:44 48.8 °F 45.4 °F 29.70 in Calm   1 mph 88% 0.00 in 72 W/m2
06:49 48.9 °F 45.8 °F 29.70 in Calm     88.6% 0.00 in 70 W/m2
06:54 49.3 °F 46.2 °F 29.70 in ESE 0.2 mph 2 mph 89% 0.00 in 70 W/m2
06:59 49.3 °F 46 °F 29.70 in East 2 mph 4 mph 88.2% 0.00 in 76 W/m2
07:04 49.5 °F 46 °F 29.70 in East 2 mph 4 mph 88% 0.00 in 83 W/m2
07:09 49.5 °F 46 °F 29.70 in East 0.6 mph 3 mph 88% 0.00 in 93 W/m2
07:14 49.7 °F 46.3 °F 29.70 in Calm     88% 0.00 in 97 W/m2
07:19 49.9 °F 46.5 °F 29.70 in East 0.4 mph 2 mph 88% 0.00 in 111 W/m2
07:24 50 °F 46.2 °F 29.70 in East 0.2 mph 3 mph 87% 0.00 in 118 W/m2
07:29 50.3 °F 46.5 °F 29.70 in Calm   3 mph 87% 0.00 in 123 W/m2
07:34 50.4 °F 46.7 °F 29.70 in East 0.4 mph 2 mph 87% 0.00 in 120 W/m2
07:39 50.5 °F 46.8 °F 29.70 in East 2.2 mph 4 mph 87% 0.00 in 134 W/m2
07:44 50.7 °F 46.9 °F 29.70 in ESE 1.2 mph 3 mph 87% 0.00 in 142 W/m2
07:49 51 °F 47 °F 29.70 in ESE 1.6 mph 4 mph 86% 0.00 in 151 W/m2
07:54 51.2 °F 47.2 °F 29.70 in ESE 1.5 mph 4 mph 86% 0.00 in 160 W/m2
07:59 51.4 °F 47.2 °F 29.70 in ESE 2 mph 4 mph 85.3% 0.00 in 174 W/m2
08:04 51.6 °F 47.3 °F 29.70 in SE 2.9 mph 5 mph 85% 0.00 in 197 W/m2
08:09 52 °F 47.3 °F 29.70 in ESE 1.7 mph 5 mph 84% 0.00 in 218 W/m2
08:14 52.3 °F 47.6 °F 29.70 in SE 2 mph 4 mph 84% 0.00 in 236 W/m2
08:19 52.5 °F 47.5 °F 29.70 in SE 2.9 mph 6 mph 83% 0.00 in 272 W/m2
08:24 52.9 °F 47.9 °F 29.70 in SE 2.5 mph 4 mph 83% 0.00 in 299 W/m2
08:29 53.5 °F 48.3 °F 29.70 in SE 1.3 mph 4 mph 82.4% 0.00 in 308 W/m2
08:34 54.1 °F 48.7 °F 29.70 in SE 1.3 mph 5 mph 81.8% 0.00 in 285 W/m2
08:39 54.8 °F 49 °F 29.70 in SE 1.1 mph 4 mph 81% 0.00 in 295 W/m2
08:44 55.3 °F 49.3 °F 29.70 in SE 1.7 mph 4 mph 80.4% 0.00 in 336 W/m2
08:49 55.7 °F 49.3 °F 29.70 in East 4.9 mph 9 mph 79% 0.00 in 346 W/m2
08:54 56.2 °F 49.4 °F 29.70 in East 2.8 mph 8 mph 78% 0.00 in 350 W/m2
08:59 56.7 °F 49.3 °F 29.70 in East 2.9 mph 8 mph 76.6% 0.00 in 323 W/m2
09:04 57 °F 49.3 °F 29.70 in East 4.5 mph 9 mph 75.6% 0.00 in 323 W/m2
09:09 57.2 °F 49.3 °F 29.70 in East 3.3 mph 9 mph 75% 0.00 in 311 W/m2
09:14 57.5 °F 49.4 °F 29.70 in ESE 2.1 mph 4 mph 74.6% 0.00 in 279 W/m2
09:19 57.7 °F 49.5 °F 29.70 in ESE 1.3 mph 4 mph 74% 0.00 in 278 W/m2
09:24 57.8 °F 49.6 °F 29.70 in East 2.3 mph 6 mph 74% 0.00 in 272 W/m2
09:29 58.2 °F 49.7 °F 29.70 in East 0.9 mph 4 mph 73.6% 0.00 in 294 W/m2
09:34 58.3 °F 49.6 °F 29.70 in ESE 2 mph 4 mph 73% 0.00 in 336 W/m2
09:39 57.9 °F 49.3 °F 29.70 in SE 2.1 mph 6 mph 73% 0.00 in 360 W/m2
09:44 57.9 °F 49.3 °F 29.70 in ESE 1.3 mph 6 mph 73% 0.00 in 367 W/m2
09:49 58.1 °F 49.5 °F 29.70 in ESE 2 mph 4 mph 73% 0.00 in 350 W/m2
09:54 58.2 °F 49.5 °F 29.70 in ESE 1.6 mph 4 mph 73% 0.00 in 357 W/m2
09:59 58.6 °F 49.9 °F 29.70 in ESE 1 mph 4 mph 73% 0.00 in 399 W/m2
10:04 59 °F 50.3 °F 29.70 in ESE 2.9 mph 6 mph 72.8% 0.00 in 424 W/m2
10:09 59.2 °F 50.2 °F 29.70 in East 4.2 mph 8 mph 72% 0.00 in 427 W/m2
10:14 59.7 °F 50.7 °F 29.70 in ESE 3.2 mph 7 mph 72.2% 0.00 in 424 W/m2
10:19 60.1 °F 51.1 °F 29.70 in ENE 2.5 mph 7 mph 72% 0.00 in 410 W/m2
10:24 60.4 °F 51.3 °F 29.70 in ESE 3.2 mph 7 mph 71.8% 0.00 in 413 W/m2
10:29 60.9 °F 51.4 °F 29.70 in East 2.8 mph 8 mph 71% 0.00 in 420 W/m2
10:34 61.1 °F 51.5 °F 29.70 in East 2.8 mph 8 mph 71% 0.00 in 422 W/m2
10:39 61.2 °F 51.6 °F 29.70 in ESE 3.5 mph 8 mph 71% 0.00 in 420 W/m2
10:44 61.2 °F 51.6 °F 29.70 in East 1.9 mph 7 mph 71% 0.00 in 410 W/m2
10:49 61.2 °F 51.4 °F 29.70 in ESE 2.5 mph 6 mph 70.4% 0.00 in 403 W/m2
10:54 61.2 °F 51.3 °F 29.70 in NE 1.4 mph 5 mph 70% 0.00 in 396 W/m2
10:59 61.3 °F 51.4 °F 29.70 in East 2.5 mph 7 mph 70% 0.00 in 399 W/m2
11:04 61.7 °F 51.5 °F 29.70 in ESE 3.4 mph 8 mph 69.2% 0.00 in 406 W/m2
11:09 62 °F 51.2 °F 29.70 in ESE 3.1 mph 9 mph 67.8% 0.00 in 408 W/m2
11:14 61.9 °F 50.7 °F 29.70 in ESE 4.5 mph 9 mph 67% 0.00 in 403 W/m2
11:19 62 °F 51 °F 29.70 in ESE 4.4 mph 9 mph 67.4% 0.00 in 396 W/m2
11:24 62.3 °F 52 °F 29.70 in East 5 mph 9 mph 68.8% 0.00 in 378 W/m2
11:29 62.6 °F 52.3 °F 29.70 in East 2.9 mph 10 mph 68.8% 0.00 in 359 W/m2
11:34 62.8 °F 52 °F 29.70 in ENE 5.3 mph 10 mph 68% 0.00 in 332 W/m2
11:39 62.8 °F 52 °F 29.70 in ENE 2.9 mph 7 mph 68% 0.00 in 359 W/m2
11:44 62.9 °F 52 °F 29.70 in ENE 3.7 mph 8 mph 67.8% 0.00 in 373 W/m2
11:49 62.9 °F 52.1 °F 29.70 in East 3.5 mph 7 mph 68% 0.00 in 381 W/m2
11:54 63 °F 52.5 °F 29.70 in East 2.3 mph 9 mph 68.6% 0.00 in 387 W/m2
11:59 62.8 °F 52 °F 29.70 in East 1.9 mph 10 mph 68% 0.00 in 388 W/m2
12:04 63 °F 52.2 °F 29.70 in East 4.7 mph 8 mph 68% 0.00 in 387 W/m2
12:09 63.1 °F 52.2 °F 29.70 in NE 2.8 mph 8 mph 67.4% 0.00 in 385 W/m2
12:14 63.4 °F 52.5 °F 29.70 in East 3.3 mph 7 mph 67.8% 0.00 in 396 W/m2
12:19 63.8 °F 52.8 °F 29.70 in NE 4 mph 8 mph 67.4% 0.00 in 403 W/m2
12:24 63.9 °F 52.5 °F 29.70 in East 2 mph 9 mph 66.6% 0.00 in 420 W/m2
12:29 63.9 °F 52.5 °F 29.70 in ENE 3.5 mph 8 mph 66.4% 0.00 in 446 W/m2
12:34 63.6 °F 52.3 °F 29.70 in SE 1.3 mph 8 mph 66.6% 0.00 in 475 W/m2
12:39 63.4 °F 52.6 °F 29.70 in East 3.6 mph 6 mph 67.8% 0.00 in 499 W/m2
12:44 64 °F 52.9 °F 29.70 in ENE 2.9 mph 7 mph 67% 0.00 in 533 W/m2
12:49 63.9 °F 52.5 °F 29.70 in SE 2.5 mph 5 mph 66.2% 0.00 in 580 W/m2
12:54 63.2 °F 52.1 °F 29.70 in ESE 2 mph 7 mph 67% 0.00 in 617 W/m2
12:59 63.9 °F 52.9 °F 29.70 in NE 1.7 mph 5 mph 67.4% 0.00 in 626 W/m2
13:04 65.1 °F 53.6 °F 29.70 in NNE 2.2 mph 6 mph 66.4% 0.00 in 615 W/m2
13:09 65.2 °F 53.1 °F 29.70 in SE 4.1 mph 7 mph 64.8% 0.00 in 568 W/m2
13:14 63.7 °F 52 °F 29.70 in North 2.9 mph 6 mph 66% 0.00 in 515 W/m2
13:19 64 °F 52.6 °F 29.70 in NNE 4.8 mph 8 mph 66.4% 0.00 in 448 W/m2
13:24 64.6 °F 52.9 °F 29.70 in NE 4 mph 7 mph 66% 0.00 in 418 W/m2
13:29 65.1 °F 53.1 °F 29.70 in ENE 3.3 mph 8 mph 65% 0.00 in 475 W/m2
13:34 65.8 °F 53.2 °F 29.69 in NE 3.6 mph 7 mph 63.8% 0.00 in 494 W/m2
13:39 66.3 °F 53.3 °F 29.69 in NNE 2.8 mph 7 mph 63% 0.00 in 499 W/m2
13:44 66.5 °F 53.5 °F 29.69 in NE 2.9 mph 5 mph 63% 0.00 in 515 W/m2
13:49 66.6 °F 53.5 °F 29.69 in NE 3.3 mph 6 mph 62.8% 0.00 in 536 W/m2
13:54 66.9 °F 53.2 °F 29.69 in ENE 0.7 mph 6 mph 61.6% 0.00 in 520 W/m2
13:59 66.9 °F 53.1 °F 29.68 in NE 4.2 mph 8 mph 61.2% 0.00 in 519 W/m2
14:04 66.3 °F 52.6 °F 29.68 in NNE 2.8 mph 8 mph 61.4% 0.00 in 503 W/m2
14:09 65.8 °F 52.9 °F 29.68 in ESE 2.2 mph 4 mph 62.8% 0.00 in 513 W/m2
14:14 66 °F 52.7 °F 29.68 in ESE 1.2 mph 8 mph 62.2% 0.00 in 519 W/m2
14:19 65.7 °F 52.2 °F 29.68 in ESE 2 mph 3 mph 61.6% 0.00 in 490 W/m2
14:24 65 °F 52.2 °F 29.68 in ESE 0.9 mph 3 mph 63.2% 0.00 in 461 W/m2
14:29 65.3 °F 52.4 °F 29.68 in North 2.4 mph 6 mph 63.2% 0.00 in 480 W/m2
14:34 65.7 °F 52.7 °F 29.68 in NNE 2.2 mph 6 mph 62.8% 0.00 in 471 W/m2
14:39 66.1 °F 52.7 °F 29.68 in SE 1.5 mph 4 mph 61.8% 0.00 in 445 W/m2
14:44 65.8 °F 52.2 °F 29.68 in East 2.4 mph 6 mph 61.4% 0.00 in 431 W/m2
14:49 66.3 °F 52.6 °F 29.68 in East 2 mph 6 mph 61.4% 0.00 in 432 W/m2
14:54 66.2 °F 52.3 °F 29.68 in ENE 1.6 mph 5 mph 60.8% 0.00 in 415 W/m2
14:59 66.4 °F 52.9 °F 29.68 in ENE 2 mph 7 mph 61.8% 0.00 in 425 W/m2
15:04 66.9 °F 53.6 °F 29.68 in ENE 2.4 mph 4 mph 62.2% 0.00 in 418 W/m2
15:09 67.4 °F 53.6 °F 29.68 in ENE 1.6 mph 4 mph 61.2% 0.00 in 394 W/m2
15:14 67.5 °F 53.5 °F 29.68 in ENE 0.4 mph 2 mph 60.6% 0.00 in 362 W/m2
15:19 67.2 °F 53 °F 29.67 in East 2 mph 7 mph 60.4% 0.00 in 336 W/m2
15:24 66.8 °F 53 °F 29.67 in SE 1.3 mph 5 mph 61% 0.00 in 306 W/m2
15:29 66.2 °F 52.5 °F 29.67 in ESE 2 mph 5 mph 61.2% 0.00 in 329 W/m2
15:34 65.8 °F 52.8 °F 29.67 in ESE 2.1 mph 4 mph 63% 0.00 in 336 W/m2
15:39 65.4 °F 52.4 °F 29.67 in ESE 1.7 mph 5 mph 63% 0.00 in 323 W/m2
15:44 65.2 °F 52.4 °F 29.67 in SE 1.2 mph 4 mph 63.3% 0.00 in 313 W/m2
15:48 64.9 °F 52.3 °F 29.67 in SE 3 mph 5 mph 63.5% 0.00 in 325 W/m2
15:54 64.8 °F 52.3 °F 29.67 in SE 2 mph 5 mph 64% 0.00 in 327 W/m2
15:59 65.2 °F 53.1 °F 29.67 in East 2.5 mph 5 mph 64.8% 0.00 in 315 W/m2
16:04 65.8 °F 53.2 °F 29.67 in East 1.2 mph 3 mph 63.8% 0.00 in 285 W/m2
16:09 65.7 °F 52.4 °F 29.67 in ESE 1.7 mph 4 mph 62.2% 0.00 in 276 W/m2
16:14 64.7 °F 51.7 °F 29.67 in SE 1.7 mph 4 mph 63% 0.00 in 265 W/m2
16:19 64.2 °F 51.8 °F 29.67 in SE 1.7 mph 4 mph 63.8% 0.00 in 257 W/m2
16:24 64.6 °F 52.3 °F 29.67 in SE 1.5 mph 4 mph 64.4% 0.00 in 281 W/m2
16:29 65.2 °F 52.5 °F 29.67 in SE 1 mph 3 mph 63.4% 0.00 in 278 W/m2
16:34 64.9 °F 52.2 °F 29.67 in ESE 1.3 mph 5 mph 63.4% 0.00 in 265 W/m2
16:39 65.5 °F 52.7 °F 29.67 in East 1.6 mph 5 mph 63.4% 0.00 in 236 W/m2
16:44 66.1 °F 52.5 °F 29.67 in East 2.7 mph 5 mph 61.4% 0.00 in 221 W/m2
16:49 66.5 °F 52.4 °F 29.67 in East 1.9 mph 5 mph 60.4% 0.00 in 211 W/m2
16:54 66.8 °F 52.9 °F 29.67 in East 1 mph 3 mph 60.8% 0.00 in 220 W/m2
16:59 66.5 °F 52.5 °F 29.67 in East 0.6 mph 2 mph 60.6% 0.00 in 227 W/m2
17:04 65.8 °F 52.1 °F 29.67 in SSE 2.5 mph 9 mph 61.4% 0.00 in 207 W/m2
17:09 63.6 °F 54 °F 29.67 in SSE 4.6 mph 9 mph 71% 0.00 in 214 W/m2
17:14 62.4 °F 54.2 °F 29.67 in South 2.5 mph 7 mph 74.6% 0.00 in 204 W/m2
17:19 61.9 °F 54.2 °F 29.67 in SSW 4.8 mph 7 mph 75.8% 0.00 in 186 W/m2
17:24 61.4 °F 54.1 °F 29.67 in South 4.3 mph 8 mph 76.6% 0.00 in 139 W/m2
17:29 61.2 °F 53.7 °F 29.67 in South 3 mph 8 mph 76.4% 0.00 in 113 W/m2
17:34 61 °F 53.4 °F 29.67 in SSW 4.9 mph 9 mph 76% 0.00 in 105 W/m2
17:39 60.4 °F 52.9 °F 29.67 in South 3.7 mph 9 mph 76% 0.00 in 111 W/m2
17:44 60.4 °F 52.9 °F 29.67 in SSE 4 mph 7 mph 76% 0.00 in 105 W/m2
17:49 60.3 °F 53.1 °F 29.67 in SSE 4.2 mph 7 mph 76.8% 0.00 in 86 W/m2
17:54 60.4 °F 53.2 °F 29.67 in SSE 2.4 mph 5 mph 77% 0.00 in 90 W/m2
17:59 60.5 °F 53.3 °F 29.68 in SW 4 mph 7 mph 76.8% 0.00 in 86 W/m2
18:04 60.4 °F 53.1 °F 29.68 in SSW 2.9 mph 7 mph 76.6% 0.00 in 72 W/m2
18:09 60.2 °F 52.9 °F 29.68 in SW 4.1 mph 8 mph 76.8% 0.00 in 72 W/m2
18:14 60.1 °F 52.9 °F 29.68 in SSW 3 mph 7 mph 77% 0.00 in 72 W/m2
18:19 60.1 °F 52.9 °F 29.68 in South 3 mph 6 mph 77% 0.00 in 76 W/m2
18:23 59.9 °F 52.7 °F 29.68 in South 2.5 mph 8 mph 77% 0.00 in 77 W/m2
18:29 59.7 °F 52.5 °F 29.68 in SW 4.6 mph 11 mph 77% 0.00 in 77 W/m2
18:34 59.3 °F 52.1 °F 29.68 in SSW 4.3 mph 9 mph 77% 0.00 in 69 W/m2
18:39 59.1 °F 51.9 °F 29.69 in SW 3.4 mph 7 mph 77% 0.00 in 63 W/m2
18:44 58.7 °F 51.5 °F 29.69 in SW 4.4 mph 8 mph 77% 0.00 in 60 W/m2
18:49 58.5 °F 51.3 °F 29.69 in SSW 4.8 mph 7 mph 77% 0.00 in 58 W/m2
18:54 58.5 °F 51.4 °F 29.69 in SSW 2.6 mph 7 mph 77.4% 0.00 in 53 W/m2
18:59 58.5 °F 51.6 °F 29.69 in SSW 1.7 mph 4 mph 78% 0.00 in 49 W/m2
19:04 58.5 °F 51.6 °F 29.69 in WSW 3.9 mph 6 mph 78% 0.00 in 47 W/m2
19:09 58.2 °F 51.4 °F 29.69 in West 2.4 mph 5 mph 78% 0.00 in 49 W/m2
19:14 58.1 °F 51.3 °F 29.69 in WNW 3 mph 5 mph 78% 0.00 in 62 W/m2
19:19 57.7 °F 50.8 °F 29.69 in WNW 2.2 mph 5 mph 78% 0.00 in 77 W/m2
19:24 57.6 °F 50.7 °F 29.69 in WNW 2 mph 4 mph 78% 0.00 in 74 W/m2
19:29 57.6 °F 50.7 °F 29.69 in West 1 mph 3 mph 78% 0.00 in 98 W/m2
19:34 57.7 °F 50.9 °F 29.69 in WSW 3.2 mph 6 mph 78% 0.00 in 134 W/m2
19:39 57.7 °F 50.8 °F 29.70 in West 4.3 mph 7 mph 77.8% 0.00 in 125 W/m2
19:44 57.7 °F 50.7 °F 29.70 in SW 3 mph 6 mph 77.4% 0.00 in 98 W/m2
19:49 57.7 °F 50.7 °F 29.70 in WSW 2.4 mph 5 mph 77.6% 0.00 in 76 W/m2
19:54 57.6 °F 50.6 °F 29.70 in WSW 2.3 mph 5 mph 77.6% 0.00 in 58 W/m2
19:59 57.6 °F 50.7 °F 29.70 in WSW 1.3 mph 4 mph 78% 0.00 in 54 W/m2
20:04 57.6 °F 50.7 °F 29.69 in WSW 1.7 mph 4 mph 78% 0.00 in 51 W/m2
20:09 57.6 °F 50.7 °F 29.70 in WSW 1.7 mph 4 mph 78% 0.00 in 44 W/m2
20:14 57.6 °F 50.8 °F 29.70 in WSW 1.6 mph 3 mph 78% 0.00 in 30 W/m2
20:19 57.6 °F 51 °F 29.70 in WSW 0.4 mph 3 mph 78.8% 0.00 in 16 W/m2
20:24 57.6 °F 51.1 °F 29.70 in WSW 1.4 mph 3 mph 79% 0.00 in 11 W/m2
20:29 57.6 °F 51.2 °F 29.70 in WSW 1.3 mph 4 mph 79.4% 0.00 in 7 W/m2
20:34 57.6 °F 51.4 °F 29.70 in WSW 0.8 mph 3 mph 80% 0.00 in 0 W/m2
20:39 57.6 °F 51.5 °F 29.70 in WSW 1.7 mph 3 mph 80.2% 0.00 in 0 W/m2
20:44 57.5 °F 51.7 °F 29.70 in WSW 2.5 mph 4 mph 81% 0.00 in 0 W/m2
20:49 57.4 °F 51.8 °F 29.70 in West 2.9 mph 5 mph 81.6% 0.00 in 0 W/m2
20:54 57.4 °F 52 °F 29.71 in WSW 3.1 mph 6 mph 82% 0.00 in 0 W/m2
20:59 56.9 °F 51.5 °F 29.71 in WNW 5.2 mph 11 mph 82% 0.00 in 0 W/m2
21:04 56.7 °F 51.1 °F 29.71 in West 5.4 mph 11 mph 81.6% 0.00 in 0 W/m2
21:09 56.5 °F 50.8 °F 29.71 in West 5.2 mph 9 mph 81.4% 0.00 in 0 W/m2
21:14 56.1 °F 50.7 °F 29.71 in West 4.7 mph 9 mph 82% 0.00 in 0 W/m2
21:19 55.8 °F 50.6 °F 29.71 in West 3.7 mph 7 mph 82.6% 0.00 in 0 W/m2
21:24 55.8 °F 50.7 °F 29.71 in West 2.1 mph 5 mph 83% 0.00 in 0 W/m2
21:29 55.5 °F 50.7 °F 29.71 in WNW 2.4 mph 6 mph 83.6% 0.00 in 0 W/m2
21:34 55.3 °F 50.6 °F 29.72 in WNW 1.6 mph 4 mph 84% 0.00 in 0 W/m2
21:39 55.3 °F 50.7 °F 29.72 in WNW 0.4 mph 3 mph 84.6% 0.00 in 0 W/m2
21:44 55.1 °F 50.6 °F 29.72 in WNW 2.6 mph 4 mph 85% 0.00 in 0 W/m2
21:49 55 °F 50.5 °F 29.72 in WNW 2 mph 4 mph 85% 0.00 in 0 W/m2
21:54 54.9 °F 50.5 °F 29.72 in WNW 1.7 mph 4 mph 85.4% 0.00 in 0 W/m2
21:59 54.9 °F 50.7 °F 29.72 in WNW 1.6 mph 3 mph 86% 0.00 in 0 W/m2
22:04 54.8 °F 50.6 °F 29.72 in WNW 0.6 mph 3 mph 86% 0.00 in 0 W/m2
22:09 54.9 °F 50.7 °F 29.71 in Calm   1 mph 86% 0.00 in 0 W/m2
22:14 54.7 °F 50.5 °F 29.71 in WNW 0.9 mph 3 mph 86% 0.00 in 0 W/m2
22:19 54.9 °F 51 °F 29.72 in WNW 0.6 mph 2 mph 86.8% 0.00 in 0 W/m2
22:24 54.9 °F 51.1 °F 29.71 in WNW 0.6 mph 3 mph 87% 0.00 in 0 W/m2
22:29 54.9 °F 51.2 °F 29.71 in Calm   1 mph 87% 0.00 in 0 W/m2
22:34 55 °F 51.3 °F 29.72 in Calm     87% 0.00 in 0 W/m2
22:39 55 °F 51.3 °F 29.72 in Calm     87% 0.00 in 0 W/m2
22:44 55 °F 51.3 °F 29.72 in Calm     87% 0.00 in 0 W/m2
22:49 55 °F 51.3 °F 29.72 in Calm     87% 0.00 in 0 W/m2
22:54 55 °F 51.3 °F 29.72 in Calm     87% 0.00 in 0 W/m2
22:59 54.9 °F 51.1 °F 29.72 in Calm     87% 0.00 in 0 W/m2
23:04 54.9 °F 51.1 °F 29.72 in Calm     87% 0.00 in 0 W/m2
23:09 54.9 °F 51.1 °F 29.72 in Calm     87% 0.00 in 0 W/m2
23:14 55 °F 51.3 °F 29.72 in Calm     87% 0.00 in 0 W/m2
23:19 54.9 °F 51.2 °F 29.72 in Calm     87.2% 0.00 in 0 W/m2
23:24 54.8 °F 51.3 °F 29.72 in WNW 1.6 mph 2 mph 88% 0.00 in 0 W/m2
23:29 54.6 °F 50.9 °F 29.72 in WNW 1.3 mph 2 mph 87.2% 0.00 in 0 W/m2
23:34 54.3 °F 51 °F 29.72 in WNW 1.2 mph 2 mph 88% 0.00 in 0 W/m2
23:39 54.3 °F 50.9 °F 29.72 in WNW 1.1 mph 2 mph 88% 0.00 in 0 W/m2
23:44 54.3 °F 50.9 °F 29.72 in Calm   1 mph 88% 0.00 in 0 W/m2
23:49 54.3 °F 50.9 °F 29.72 in Calm     88% 0.00 in 0 W/m2
23:54 54.3 °F 50.9 °F 29.72 in Calm     88% 0.00 in 0 W/m2
23:59 54.3 °F 50.9 °F 29.72 in Calm     88% 0.00 in 0 W/m2
Bath Spa Weather
Compliments of Weather Underground - 2 mb